<?xml version="1.0" encoding="UTF-8" standalone="no" ?>
<gpx xmlns="http://www.topografix.com/GPX/1/1" xmlns:xsi="http://www.w3.org/2001/XMLSchema-instance" xsi:schemaLocation="http://www.topografix.com/GPX/1/1 http://www.topografix.com/GPX/1/1/gpx.xsd" version="1.1" creator="VisuGPX - https://www.visugpx.com">
  <metadata>
    <name>La porte des Garrotxes Variante Evol Oreilla</name>
    <desc><![CDATA[ La porte des Garrotxes Variante Evol Oreilla]]></desc>
  </metadata>
  <trk>
    <name><![CDATA[Variante Porte desGarrotxes]]></name>
    <trkseg>
      <trkpt lat="42.56009" lon="2.25443">
        <ele>874.94</ele>
        <time>2014-11-13T13:48:59Z</time>
      </trkpt>
      <trkpt lat="42.56011" lon="2.2545">
        <ele>874.94</ele>
        <time>2014-11-13T13:49:17Z</time>
      </trkpt>
      <trkpt lat="42.56014" lon="2.25464">
        <ele>872.05</ele>
        <time>2014-11-13T13:49:30Z</time>
      </trkpt>
      <trkpt lat="42.56019" lon="2.2547">
        <ele>867.73</ele>
        <time>2014-11-13T13:49:46Z</time>
      </trkpt>
      <trkpt lat="42.56016" lon="2.25485">
        <ele>863.4</ele>
        <time>2014-11-13T13:50:04Z</time>
      </trkpt>
      <trkpt lat="42.56015" lon="2.25498">
        <ele>860.04</ele>
        <time>2014-11-13T13:50:21Z</time>
      </trkpt>
      <trkpt lat="42.5602" lon="2.25502">
        <ele>858.11</ele>
        <time>2014-11-13T13:50:38Z</time>
      </trkpt>
      <trkpt lat="42.56036" lon="2.25508">
        <ele>853.31</ele>
        <time>2014-11-13T13:50:59Z</time>
      </trkpt>
      <trkpt lat="42.56048" lon="2.25503">
        <ele>848.98</ele>
        <time>2014-11-13T13:51:18Z</time>
      </trkpt>
      <trkpt lat="42.56051" lon="2.25512">
        <ele>845.14</ele>
        <time>2014-11-13T13:51:34Z</time>
      </trkpt>
      <trkpt lat="42.56051" lon="2.25526">
        <ele>842.25</ele>
        <time>2014-11-13T13:51:48Z</time>
      </trkpt>
      <trkpt lat="42.56053" lon="2.25538">
        <ele>838.41</ele>
        <time>2014-11-13T13:52:04Z</time>
      </trkpt>
      <trkpt lat="42.56059" lon="2.25541">
        <ele>834.08</ele>
        <time>2014-11-13T13:52:38Z</time>
      </trkpt>
      <trkpt lat="42.56059" lon="2.25546">
        <ele>833.12</ele>
        <time>2014-11-13T13:52:56Z</time>
      </trkpt>
      <trkpt lat="42.56069" lon="2.25547">
        <ele>829.27</ele>
        <time>2014-11-13T13:53:14Z</time>
      </trkpt>
      <trkpt lat="42.56079" lon="2.25538">
        <ele>826.39</ele>
        <time>2014-11-13T13:53:42Z</time>
      </trkpt>
      <trkpt lat="42.56094" lon="2.25526">
        <ele>825.91</ele>
        <time>2014-11-13T13:53:56Z</time>
      </trkpt>
      <trkpt lat="42.56101" lon="2.25513">
        <ele>825.43</ele>
        <time>2014-11-13T13:54:09Z</time>
      </trkpt>
      <trkpt lat="42.56114" lon="2.25507">
        <ele>824.95</ele>
        <time>2014-11-13T13:54:20Z</time>
      </trkpt>
      <trkpt lat="42.56127" lon="2.25506">
        <ele>823.51</ele>
        <time>2014-11-13T13:54:36Z</time>
      </trkpt>
      <trkpt lat="42.5614" lon="2.255">
        <ele>823.03</ele>
        <time>2014-11-13T13:54:50Z</time>
      </trkpt>
      <trkpt lat="42.5615" lon="2.25501">
        <ele>823.51</ele>
        <time>2014-11-13T13:55:50Z</time>
      </trkpt>
      <trkpt lat="42.5615" lon="2.25499">
        <ele>823.03</ele>
        <time>2014-11-13T13:56:06Z</time>
      </trkpt>
      <trkpt lat="42.56157" lon="2.25504">
        <ele>821.1</ele>
        <time>2014-11-13T13:56:22Z</time>
      </trkpt>
      <trkpt lat="42.5617" lon="2.25513">
        <ele>819.18</ele>
        <time>2014-11-13T13:56:38Z</time>
      </trkpt>
      <trkpt lat="42.56184" lon="2.25508">
        <ele>816.78</ele>
        <time>2014-11-13T13:56:58Z</time>
      </trkpt>
      <trkpt lat="42.56204" lon="2.25505">
        <ele>816.78</ele>
        <time>2014-11-13T13:57:13Z</time>
      </trkpt>
      <trkpt lat="42.56216" lon="2.25512">
        <ele>815.82</ele>
        <time>2014-11-13T13:57:25Z</time>
      </trkpt>
      <trkpt lat="42.56229" lon="2.25514">
        <ele>815.34</ele>
        <time>2014-11-13T13:57:35Z</time>
      </trkpt>
      <trkpt lat="42.56241" lon="2.25512">
        <ele>815.34</ele>
        <time>2014-11-13T13:57:44Z</time>
      </trkpt>
      <trkpt lat="42.56239" lon="2.25512">
        <ele>814.85</ele>
        <time>2014-11-13T13:57:58Z</time>
      </trkpt>
      <trkpt lat="42.56249" lon="2.25507">
        <ele>809.57</ele>
        <time>2014-11-13T13:58:27Z</time>
      </trkpt>
      <trkpt lat="42.56271" lon="2.25519">
        <ele>804.76</ele>
        <time>2014-11-13T13:58:47Z</time>
      </trkpt>
      <trkpt lat="42.56284" lon="2.25526">
        <ele>798.51</ele>
        <time>2014-11-13T13:59:10Z</time>
      </trkpt>
      <trkpt lat="42.56292" lon="2.2553">
        <ele>793.71</ele>
        <time>2014-11-13T13:59:31Z</time>
      </trkpt>
      <trkpt lat="42.56302" lon="2.25538">
        <ele>789.86</ele>
        <time>2014-11-13T13:59:48Z</time>
      </trkpt>
      <trkpt lat="42.56302" lon="2.25553">
        <ele>786.02</ele>
        <time>2014-11-13T14:00:06Z</time>
      </trkpt>
      <trkpt lat="42.56314" lon="2.25536">
        <ele>781.21</ele>
        <time>2014-11-13T14:00:31Z</time>
      </trkpt>
      <trkpt lat="42.56328" lon="2.25517">
        <ele>777.84</ele>
        <time>2014-11-13T14:00:53Z</time>
      </trkpt>
      <trkpt lat="42.56341" lon="2.25492">
        <ele>774.96</ele>
        <time>2014-11-13T14:01:21Z</time>
      </trkpt>
      <trkpt lat="42.56367" lon="2.25477">
        <ele>770.63</ele>
        <time>2014-11-13T14:01:53Z</time>
      </trkpt>
      <trkpt lat="42.56392" lon="2.25478">
        <ele>770.15</ele>
        <time>2014-11-13T14:02:12Z</time>
      </trkpt>
      <trkpt lat="42.56407" lon="2.2548">
        <ele>769.67</ele>
        <time>2014-11-13T14:02:25Z</time>
      </trkpt>
      <trkpt lat="42.56418" lon="2.25485">
        <ele>769.19</ele>
        <time>2014-11-13T14:02:40Z</time>
      </trkpt>
      <trkpt lat="42.56438" lon="2.25485">
        <ele>766.31</ele>
        <time>2014-11-13T14:02:59Z</time>
      </trkpt>
      <trkpt lat="42.56456" lon="2.25474">
        <ele>761.5</ele>
        <time>2014-11-13T14:03:21Z</time>
      </trkpt>
      <trkpt lat="42.56463" lon="2.2548">
        <ele>758.14</ele>
        <time>2014-11-13T14:03:37Z</time>
      </trkpt>
      <trkpt lat="42.56464" lon="2.25491">
        <ele>753.81</ele>
        <time>2014-11-13T14:03:58Z</time>
      </trkpt>
      <trkpt lat="42.56479" lon="2.25476">
        <ele>749.49</ele>
        <time>2014-11-13T14:04:23Z</time>
      </trkpt>
      <trkpt lat="42.56488" lon="2.25455">
        <ele>746.12</ele>
        <time>2014-11-13T14:04:41Z</time>
      </trkpt>
      <trkpt lat="42.56495" lon="2.25433">
        <ele>743.72</ele>
        <time>2014-11-13T14:04:58Z</time>
      </trkpt>
      <trkpt lat="42.565" lon="2.2544">
        <ele>740.83</ele>
        <time>2014-11-13T14:05:15Z</time>
      </trkpt>
      <trkpt lat="42.56519" lon="2.25435">
        <ele>740.83</ele>
        <time>2014-11-13T14:07:16Z</time>
      </trkpt>
      <trkpt lat="42.56538" lon="2.25421">
        <ele>742.76</ele>
        <time>2014-11-13T14:07:36Z</time>
      </trkpt>
      <trkpt lat="42.56551" lon="2.2541">
        <ele>739.87</ele>
        <time>2014-11-13T14:07:58Z</time>
      </trkpt>
      <trkpt lat="42.56569" lon="2.25408">
        <ele>737.95</ele>
        <time>2014-11-13T14:08:10Z</time>
      </trkpt>
      <trkpt lat="42.56589" lon="2.25397">
        <ele>734.1</ele>
        <time>2014-11-13T14:08:35Z</time>
      </trkpt>
      <trkpt lat="42.56611" lon="2.25395">
        <ele>732.18</ele>
        <time>2014-11-13T14:08:53Z</time>
      </trkpt>
      <trkpt lat="42.56632" lon="2.25398">
        <ele>731.22</ele>
        <time>2014-11-13T14:09:07Z</time>
      </trkpt>
      <trkpt lat="42.56645" lon="2.25403">
        <ele>729.78</ele>
        <time>2014-11-13T14:09:19Z</time>
      </trkpt>
      <trkpt lat="42.56662" lon="2.25405">
        <ele>728.82</ele>
        <time>2014-11-13T14:09:34Z</time>
      </trkpt>
      <trkpt lat="42.56676" lon="2.25408">
        <ele>723.53</ele>
        <time>2014-11-13T14:09:55Z</time>
      </trkpt>
      <trkpt lat="42.56704" lon="2.25393">
        <ele>716.32</ele>
        <time>2014-11-13T14:10:30Z</time>
      </trkpt>
      <trkpt lat="42.5672" lon="2.25392">
        <ele>715.36</ele>
        <time>2014-11-13T14:10:44Z</time>
      </trkpt>
      <trkpt lat="42.56727" lon="2.25401">
        <ele>717.76</ele>
        <time>2014-11-13T14:10:56Z</time>
      </trkpt>
      <trkpt lat="42.56742" lon="2.25407">
        <ele>722.57</ele>
        <time>2014-11-13T14:11:25Z</time>
      </trkpt>
      <trkpt lat="42.5674" lon="2.25412">
        <ele>725.93</ele>
        <time>2014-11-13T14:11:49Z</time>
      </trkpt>
      <trkpt lat="42.56751" lon="2.2542">
        <ele>730.74</ele>
        <time>2014-11-13T14:12:18Z</time>
      </trkpt>
      <trkpt lat="42.56763" lon="2.2542">
        <ele>734.1</ele>
        <time>2014-11-13T14:12:44Z</time>
      </trkpt>
      <trkpt lat="42.56772" lon="2.25411">
        <ele>735.55</ele>
        <time>2014-11-13T14:12:56Z</time>
      </trkpt>
      <trkpt lat="42.56785" lon="2.25408">
        <ele>738.43</ele>
        <time>2014-11-13T14:13:15Z</time>
      </trkpt>
      <trkpt lat="42.56796" lon="2.25403">
        <ele>748.468506</ele>
        <time>2014-11-13T14:13:45Z</time>
      </trkpt>
      <trkpt lat="42.56802" lon="2.25395">
        <ele>748.891968</ele>
      </trkpt>
      <trkpt lat="42.56807" lon="2.2539">
        <ele>750.032654</ele>
      </trkpt>
      <trkpt lat="42.56813" lon="2.25385">
        <ele>751.042114</ele>
      </trkpt>
      <trkpt lat="42.56821" lon="2.25378">
        <ele>752.276428</ele>
      </trkpt>
      <trkpt lat="42.56826" lon="2.25369">
        <ele>752.671509</ele>
      </trkpt>
      <trkpt lat="42.56836" lon="2.25358">
        <ele>753.579224</ele>
      </trkpt>
      <trkpt lat="42.56844" lon="2.25349">
        <ele>754.604187</ele>
      </trkpt>
      <trkpt lat="42.56854" lon="2.25346">
        <ele>756.641724</ele>
      </trkpt>
      <trkpt lat="42.56861" lon="2.25353">
        <ele>759.104187</ele>
      </trkpt>
      <trkpt lat="42.56862" lon="2.25363">
        <ele>760.354187</ele>
      </trkpt>
      <trkpt lat="42.56857" lon="2.25377">
        <ele>760.541687</ele>
      </trkpt>
      <trkpt lat="42.56851" lon="2.25388">
        <ele>760.079224</ele>
      </trkpt>
      <trkpt lat="42.56847" lon="2.254">
        <ele>760.506348</ele>
      </trkpt>
      <trkpt lat="42.5684" lon="2.2541">
        <ele>760.506348</ele>
      </trkpt>
      <trkpt lat="42.56831" lon="2.25419">
        <ele>760.06958</ele>
      </trkpt>
      <trkpt lat="42.56824" lon="2.25426">
        <ele>759.571167</ele>
      </trkpt>
      <trkpt lat="42.56818" lon="2.25439">
        <ele>760.119507</ele>
      </trkpt>
      <trkpt lat="42.56816" lon="2.25452">
        <ele>761.784119</ele>
      </trkpt>
      <trkpt lat="42.56812" lon="2.25466">
        <ele>763.316895</ele>
      </trkpt>
      <trkpt lat="42.56806" lon="2.25477">
        <ele>763.707336</ele>
      </trkpt>
      <trkpt lat="42.56797" lon="2.25485">
        <ele>763.756409</ele>
      </trkpt>
      <trkpt lat="42.56789" lon="2.2549">
        <ele>763.769287</ele>
      </trkpt>
      <trkpt lat="42.56782" lon="2.25497">
        <ele>764.629211</ele>
      </trkpt>
      <trkpt lat="42.56773" lon="2.25504">
        <ele>765.596069</ele>
      </trkpt>
      <trkpt lat="42.56767" lon="2.25512">
        <ele>767.232666</ele>
      </trkpt>
      <trkpt lat="42.56757" lon="2.25516">
        <ele>767.884949</ele>
      </trkpt>
      <trkpt lat="42.56747" lon="2.25525">
        <ele>769.838074</ele>
      </trkpt>
      <trkpt lat="42.56735" lon="2.25535">
        <ele>770.803894</ele>
      </trkpt>
      <trkpt lat="42.56723" lon="2.25547">
        <ele>771.616394</ele>
      </trkpt>
      <trkpt lat="42.56715" lon="2.25554">
        <ele>772.366394</ele>
      </trkpt>
      <trkpt lat="42.56709" lon="2.25563">
        <ele>773.478882</ele>
      </trkpt>
      <trkpt lat="42.56701" lon="2.25569">
        <ele>773.991394</ele>
      </trkpt>
      <trkpt lat="42.56694" lon="2.25577">
        <ele>774.715271</ele>
      </trkpt>
      <trkpt lat="42.56686" lon="2.25585">
        <ele>775.267822</ele>
      </trkpt>
      <trkpt lat="42.56674" lon="2.2559">
        <ele>774.021179</ele>
      </trkpt>
      <trkpt lat="42.5666" lon="2.25599">
        <ele>773.411133</ele>
      </trkpt>
      <trkpt lat="42.56661" lon="2.25607">
        <ele>776.15509</ele>
        <time>2014-11-13T14:16:26Z</time>
      </trkpt>
    </trkseg>
  </trk>
</gpx>